createdAt,value
2018-11-22T12:16:40.179Z,101414.22
2018-11-22T12:19:09.611Z,101410.66
2018-11-22T12:21:38.835Z,101412.77
2018-11-22T12:24:08.927Z,101405.80
2018-11-22T12:26:38.287Z,101413.89
2018-11-22T12:29:07.726Z,101409.10
2018-11-22T12:31:37.031Z,101405.97
2018-11-22T12:34:11.990Z,101401.38
2018-11-22T12:36:49.947Z,101403.65
2018-11-22T12:39:19.343Z,101400.75
2018-11-22T12:41:48.519Z,101404.15
2018-11-22T12:44:17.704Z,101392.38
2018-11-22T12:46:47.978Z,101394.28
2018-11-22T12:49:17.178Z,101401.59
2018-11-22T12:51:46.340Z,101398.36
2018-11-22T12:54:15.593Z,101390.22
2018-11-22T12:56:46.172Z,101400.75
2018-11-22T12:59:16.093Z,101401.35
2018-11-22T13:01:45.282Z,101395.31
2018-11-22T13:04:14.508Z,101396.16
2018-11-22T13:06:44.097Z,101396.20
2018-11-22T13:09:13.280Z,101390.11
2018-11-22T13:11:47.607Z,101388.97
2018-11-22T13:14:12.830Z,101389.09
2018-11-22T13:16:42.031Z,101390.52
2018-11-22T13:19:11.251Z,101396.23
2018-11-22T13:21:40.759Z,101385.41
2018-11-22T13:24:11.429Z,101382.95
2018-11-22T13:26:40.599Z,101377.37
2018-11-22T13:29:09.881Z,101379.28
2018-11-22T13:31:39.040Z,101375.02
2018-11-22T13:34:08.218Z,101378.27
2018-11-22T13:36:38.454Z,101381.82
2018-11-22T13:39:10.083Z,101384.91
2018-11-22T13:41:40.634Z,101379.91
2018-11-22T13:44:09.795Z,101381.70
2018-11-22T13:46:40.814Z,101379.06
2018-11-22T13:49:10.139Z,101385.31
2018-11-22T13:51:39.354Z,101381.88
2018-11-22T13:54:08.593Z,101382.37
2018-11-22T13:56:37.798Z,101387.52
2018-11-22T13:59:08.245Z,101379.33
2018-11-22T14:01:37.453Z,101383.50
2018-11-22T14:04:06.704Z,101380.27
2018-11-22T14:06:35.882Z,101377.17
2018-11-22T14:09:08.518Z,101374.97
2018-11-22T14:11:38.732Z,101368.13
2018-11-22T14:14:07.921Z,101365.50
2018-11-22T14:16:38.459Z,101366.80
2018-11-22T14:19:07.653Z,101361.25
2018-11-22T14:21:37.803Z,101369.89
2018-11-22T14:24:07.121Z,101363.13
2018-11-22T14:26:36.350Z,101359.94
2018-11-22T14:29:05.895Z,101361.03
2018-11-22T14:31:35.545Z,101368.17
2018-11-22T14:34:07.325Z,101368.42
2018-11-22T14:36:37.579Z,101371.39
2018-11-22T14:39:08.090Z,101375.52
2018-11-22T14:41:37.273Z,101376.10
2018-11-22T14:44:06.977Z,101369.84
2018-11-22T14:46:36.783Z,101372.09
2018-11-22T14:49:06.536Z,101377.66
2018-11-22T14:51:41.087Z,101370.58
2018-11-22T14:54:11.154Z,101374.91
2018-11-22T14:56:41.133Z,101365.90
2018-11-22T14:59:10.679Z,101365.86
2018-11-22T15:01:39.864Z,101363.17
2018-11-22T15:04:09.060Z,101355.73
2018-11-22T15:06:38.706Z,101350.95
2018-11-22T15:09:10.179Z,101351.18
2018-11-22T15:11:39.502Z,101355.00
2018-11-22T15:14:08.804Z,101343.92
2018-11-22T15:16:38.585Z,101354.95
2018-11-22T15:19:08.683Z,101351.69
2018-11-22T15:21:37.976Z,101350.88
2018-11-22T15:24:07.179Z,101356.94
2018-11-22T15:26:37.057Z,101352.98
2018-11-22T15:29:07.467Z,101349.23
2018-11-22T15:31:36.794Z,101359.73
2018-11-22T15:34:06.246Z,101363.44
2018-11-22T15:36:35.431Z,101359.48
2018-11-22T15:39:06.603Z,101369.82
2018-11-22T15:41:41.113Z,101374.84
2018-11-22T15:44:10.306Z,101374.09
2018-11-22T15:46:39.501Z,101372.48
2018-11-22T15:49:09.376Z,101375.07
2018-11-22T15:51:38.700Z,101382.70
2018-11-22T15:54:07.857Z,101384.62
2018-11-22T15:56:38.077Z,101387.23
2018-11-22T15:59:07.255Z,101386.45
2018-11-22T16:01:38.632Z,101395.40
2018-11-22T16:04:07.992Z,101387.85
2018-11-22T16:06:37.170Z,101389.22
2018-11-22T16:09:08.430Z,101383.31
2018-11-22T16:11:38.602Z,101382.26
2018-11-22T16:14:08.293Z,101386.17
2018-11-22T16:16:37.557Z,101390.31
2018-11-22T16:19:06.731Z,101386.36
2018-11-22T16:21:35.915Z,101384.22
2018-11-22T16:24:06.826Z,101394.75
2018-11-22T16:26:36.511Z,101390.02
2018-11-22T16:29:06.052Z,101396.63
2018-11-22T16:31:35.271Z,101393.95
2018-11-22T16:34:05.693Z,101394.10
2018-11-22T16:36:36.328Z,101402.75
2018-11-22T16:39:08.970Z,101401.91
2018-11-22T16:41:38.394Z,101404.95
2018-11-22T16:44:07.999Z,101407.59
2018-11-22T16:46:38.703Z,101405.37
2018-11-22T16:49:08.182Z,101406.05
2018-11-22T16:51:37.818Z,101407.22
2018-11-22T16:54:07.098Z,101404.77
2018-11-22T16:56:36.287Z,101406.86
2018-11-22T16:59:06.367Z,101414.35
2018-11-22T17:01:35.674Z,101411.73
2018-11-22T17:04:06.645Z,101409.99
2018-11-22T17:06:35.799Z,101417.94
2018-11-22T17:09:09.193Z,101420.58
2018-11-22T17:11:39.222Z,101419.17
2018-11-22T17:14:08.436Z,101421.86
2018-11-22T17:16:37.759Z,101421.88
2018-11-22T17:19:06.959Z,101420.47
2018-11-22T17:21:37.794Z,101432.92
2018-11-22T17:24:07.345Z,101426.34
2018-11-22T17:26:36.588Z,101431.06
2018-11-22T17:29:05.799Z,101428.00
2018-11-22T17:31:35.078Z,101433.28
2018-11-22T17:34:05.199Z,101435.42
2018-11-22T17:36:34.407Z,101442.08
2018-11-22T17:39:04.185Z,101440.80
2018-11-22T17:41:33.329Z,101444.32
2018-11-22T17:44:02.529Z,101446.11
2018-11-22T17:46:34.906Z,101447.84
2018-11-22T17:49:04.107Z,101457.95
2018-11-22T17:51:33.613Z,101448.28
2018-11-22T17:54:02.951Z,101451.33
2018-11-22T17:56:32.578Z,101446.02
2018-11-22T17:59:02.333Z,101442.06
2018-11-22T18:01:31.541Z,101450.50
2018-11-22T18:04:01.658Z,101449.18
2018-11-22T18:06:30.933Z,101446.55
2018-11-22T18:09:00.586Z,101446.55
2018-11-22T18:11:30.329Z,101449.63
2018-11-22T18:13:59.557Z,101443.90
2018-11-22T18:16:28.789Z,101440.38
2018-11-22T18:18:57.984Z,101451.83
2018-11-22T18:21:28.367Z,101457.95
2018-11-22T18:23:57.976Z,101450.47
2018-11-22T18:26:27.322Z,101457.94
2018-11-22T18:28:56.610Z,101461.46
2018-11-22T18:31:25.990Z,101468.10
2018-11-22T18:33:55.897Z,101460.58
2018-11-22T18:36:25.529Z,101465.42
2018-11-22T18:38:54.838Z,101467.17
2018-11-22T18:41:24.058Z,101463.24
2018-11-22T18:43:53.233Z,101470.70
2018-11-22T18:46:24.161Z,101469.80
2018-11-22T18:48:53.730Z,101465.86
2018-11-22T18:51:23.390Z,101467.61
2018-11-22T18:53:52.636Z,101471.59
2018-11-22T18:56:21.833Z,101470.27
2018-11-22T18:58:51.543Z,101466.73
2018-11-22T19:01:21.655Z,101468.47
2018-11-22T19:03:51.259Z,101470.67
2018-11-22T19:06:20.438Z,101467.58
2018-11-22T19:08:51.697Z,101471.11
2018-11-22T19:11:21.477Z,101480.76
2018-11-22T19:13:51.167Z,101484.27
2018-11-22T19:16:20.406Z,101482.92
2018-11-22T19:18:49.615Z,101478.99
2018-11-22T19:21:18.994Z,101480.73
2018-11-22T19:23:48.942Z,101486.06
2018-11-22T19:26:18.681Z,101478.59
2018-11-22T19:28:47.864Z,101478.15
2018-11-22T19:31:17.105Z,101478.97
2018-11-22T19:33:46.348Z,101479.90
2018-11-22T19:36:17.417Z,101477.70
2018-11-22T19:38:47.398Z,101480.31
2018-11-22T19:41:16.564Z,101483.73
2018-11-22T19:43:46.016Z,101483.86
2018-11-22T19:46:17.292Z,101480.36
2018-11-22T19:48:46.897Z,101482.66
2018-11-22T19:51:16.131Z,101485.33
2018-11-22T19:53:45.396Z,101477.68
2018-11-22T19:56:14.586Z,101482.51
2018-11-22T19:58:44.778Z,101492.58
2018-11-22T20:01:14.154Z,101493.06
2018-11-22T20:03:43.451Z,101497.41
2018-11-22T20:06:12.668Z,101494.95
2018-11-22T20:08:42.041Z,101492.59
2018-11-22T20:11:12.427Z,101495.13
2018-11-22T20:13:41.951Z,101494.38
2018-11-22T20:16:11.374Z,101497.92
2018-11-22T20:18:40.829Z,101493.08
2018-11-22T20:21:10.183Z,101501.44
2018-11-22T20:23:42.385Z,101498.37
2018-11-22T20:26:11.815Z,101494.02
2018-11-22T20:28:41.058Z,101490.45
2018-11-22T20:31:10.339Z,101490.45
2018-11-22T20:33:40.034Z,101491.34
2018-11-22T20:36:10.124Z,101484.73
2018-11-22T20:38:39.987Z,101487.39
2018-11-22T20:41:09.296Z,101487.81
2018-11-22T20:43:39.120Z,101489.57
2018-11-22T20:46:09.486Z,101486.95
2018-11-22T20:48:38.851Z,101490.45
2018-11-22T20:51:08.506Z,101485.18
2018-11-22T20:53:37.735Z,101493.51
2018-11-22T20:56:07.432Z,101487.78
2018-11-22T20:58:37.123Z,101488.25
2018-11-22T21:01:06.925Z,101485.09
2018-11-22T21:03:36.094Z,101488.97
2018-11-22T21:06:05.558Z,101483.39
2018-11-22T21:08:35.319Z,101488.20
2018-11-22T21:11:06.295Z,101486.44
2018-11-22T21:13:35.857Z,101486.41
2018-11-22T21:16:05.067Z,101486.83
2018-11-22T21:18:34.262Z,101486.38
2018-11-22T21:21:03.943Z,101478.52
2018-11-22T21:23:33.675Z,101472.38
2018-11-22T21:26:02.864Z,101475.05
2018-11-22T21:28:32.067Z,101471.95
2018-11-22T21:31:02.220Z,101479.41
2018-11-22T21:33:32.020Z,101480.31
2018-11-22T21:36:02.530Z,101490.41
2018-11-22T21:38:31.896Z,101482.05
2018-11-22T21:41:01.079Z,101481.15
2018-11-22T21:43:30.237Z,101482.47
2018-11-22T21:45:59.991Z,101482.95
2018-11-22T21:48:29.755Z,101484.58
2018-11-22T21:50:58.957Z,101487.73
2018-11-22T21:53:28.691Z,101482.84
2018-11-22T21:55:57.896Z,101480.85
2018-11-22T21:58:27.691Z,101480.94
2018-11-22T22:00:58.377Z,101481.14
2018-11-22T22:03:27.573Z,101484.20
2018-11-22T22:05:56.742Z,101482.68
2018-11-22T22:08:26.074Z,101483.98
2018-11-22T22:10:55.806Z,101487.52
2018-11-22T22:13:25.545Z,101481.72
2018-11-22T22:15:55.200Z,101484.81
2018-11-22T22:18:24.470Z,101480.98
2018-11-22T22:20:53.735Z,101481.88
2018-11-22T22:23:23.429Z,101481.86
2018-11-22T22:25:53.671Z,101479.69
2018-11-22T22:28:22.893Z,101481.02
2018-11-22T22:30:52.093Z,101477.89
2018-11-22T22:33:21.409Z,101482.83
2018-11-22T22:35:51.079Z,101483.09
2018-11-22T22:38:20.758Z,101482.58
2018-11-22T22:40:50.031Z,101486.97
2018-11-22T22:43:19.256Z,101481.42
2018-11-22T22:45:49.792Z,101484.80
2018-11-22T22:48:19.616Z,101486.23
2018-11-22T22:50:50.167Z,101481.73
2018-11-22T22:53:19.344Z,101479.12
2018-11-22T22:55:48.535Z,101486.89
2018-11-22T22:58:17.858Z,101482.09
2018-11-22T23:00:47.705Z,101478.45
2018-11-22T23:03:17.596Z,101477.22
2018-11-22T23:05:46.930Z,101476.41
2018-11-22T23:08:16.104Z,101483.34
2018-11-22T23:10:45.283Z,101481.61
2018-11-22T23:13:14.892Z,101482.03
2018-11-22T23:15:45.653Z,101481.69
2018-11-22T23:18:16.201Z,101479.98
2018-11-22T23:20:45.387Z,101473.73
2018-11-22T23:23:14.683Z,101475.59
2018-11-22T23:25:44.388Z,101477.70
2018-11-22T23:28:14.075Z,101476.63
2018-11-22T23:30:43.282Z,101477.28
2018-11-22T23:33:12.615Z,101465.08
2018-11-22T23:35:41.776Z,101463.82
2018-11-22T23:38:13.175Z,101469.11
2018-11-22T23:40:42.358Z,101472.13
2018-11-22T23:43:11.634Z,101468.94
2018-11-22T23:45:40.880Z,101462.66
2018-11-22T23:48:10.091Z,101458.98
2018-11-22T23:50:40.195Z,101459.69
2018-11-22T23:53:10.748Z,101465.59
2018-11-22T23:55:39.972Z,101460.25
2018-11-22T23:58:09.142Z,101463.05
